Time;durP1;ratioP1;P1;durP2;ratioP2;P2;SDS_P1;SDS_P2;PMS_P1;PMS_P2;Temp;Humidity;BMP_temperature;BMP_pressure;BME280_temperature;BME280_humidity;BME280_pressure;Samples;Min_cycle;Max_cycle;Signal;HPM_P1;HPM_P2
2022/01/11 00:02:03;;;;;;;11.00;8.10;;;;;;;7.23;100.00;98805.50;4991053;28;20309;-71
2022/01/11 00:04:31;;;;;;;13.60;7.60;;;;;;;7.25;100.00;98808.88;4991586;28;20289;-70
2022/01/11 00:07:00;;;;;;;9.60;7.20;;;;;;;7.22;100.00;98805.56;4991454;28;20588;-71
2022/01/11 00:09:34;;;;;;;9.57;7.23;;;;;;;7.24;100.00;98812.34;4991927;28;20206;-70
2022/01/11 00:12:01;;;;;;;8.77;7.13;;;;;;;7.23;100.00;98814.97;4991917;28;20245;-69
2022/01/11 00:14:28;;;;;;;8.47;7.27;;;;;;;7.23;100.00;98826.13;4991061;28;20283;-64
2022/01/11 00:16:55;;;;;;;10.30;7.00;;;;;;;7.23;100.00;98817.53;4990941;28;20289;-69
2022/01/11 00:19:24;;;;;;;6.87;4.90;;;;;;;7.15;100.00;98840.97;4991277;28;20194;-69
2022/01/11 00:21:51;;;;;;;8.83;7.03;;;;;;;7.12;100.00;98837.63;4991764;28;20387;-64
2022/01/11 00:24:30;;;;;;;7.93;6.50;;;;;;;7.05;100.00;98826.63;4990900;28;20199;-64
2022/01/11 00:26:59;;;;;;;9.47;7.13;;;;;;;7.10;100.00;98835.09;4991106;28;20202;-64
2022/01/11 00:29:26;;;;;;;9.13;6.77;;;;;;;7.07;100.00;98844.66;4991347;28;20205;-70
2022/01/11 00:31:55;;;;;;;7.97;6.67;;;;;;;7.09;100.00;98846.31;4990952;28;20198;-65
2022/01/11 00:34:24;;;;;;;8.10;6.87;;;;;;;7.16;100.00;98868.47;4990667;28;20202;-69
2022/01/11 00:36:51;;;;;;;9.10;6.70;;;;;;;7.17;100.00;98870.19;4990618;28;20581;-63
2022/01/11 00:39:18;;;;;;;7.97;7.10;;;;;;;7.16;100.00;98865.91;4991056;28;20751;-65
2022/01/11 00:41:45;;;;;;;8.60;6.73;;;;;;;7.12;100.00;98864.28;4990590;28;20313;-63
2022/01/11 00:44:13;;;;;;;6.83;6.20;;;;;;;7.00;100.00;98854.25;4990704;28;20195;-65
2022/01/11 00:46:41;;;;;;;9.70;7.70;;;;;;;7.04;100.00;98873.94;4990588;28;20289;-64
2022/01/11 00:49:08;;;;;;;8.83;6.90;;;;;;;7.05;100.00;98862.75;4990689;28;20210;-64
2022/01/11 00:51:37;;;;;;;8.77;6.50;;;;;;;7.00;100.00;98867.16;4990995;28;20206;-64
2022/01/11 00:54:04;;;;;;;8.23;6.93;;;;;;;6.97;100.00;98874.16;4990506;28;20208;-68
2022/01/11 00:56:31;;;;;;;8.43;7.13;;;;;;;6.96;100.00;98873.31;4990451;28;20194;-64
2022/01/11 00:58:57;;;;;;;10.13;7.53;;;;;;;6.95;100.00;98887.09;4990443;28;20198;-63
2022/01/11 01:01:27;;;;;;;6.63;5.80;;;;;;;6.80;100.00;98856.50;4990798;28;20203;-68
2022/01/11 01:03:54;;;;;;;7.70;6.03;;;;;;;6.89;100.00;98882.91;4990508;28;20735;-69
2022/01/11 01:06:21;;;;;;;12.47;7.57;;;;;;;6.89;100.00;98884.63;4990397;28;20245;-63
2022/01/11 01:08:49;;;;;;;11.23;7.47;;;;;;;6.90;100.00;98889.75;4990468;28;20194;-63
2022/01/11 01:11:16;;;;;;;9.33;7.20;;;;;;;6.85;100.00;98890.78;4990580;28;20305;-63
2022/01/11 01:13:43;;;;;;;10.10;6.73;;;;;;;6.85;100.00;98894.19;4990531;28;20195;-68
2022/01/11 01:16:10;;;;;;;7.20;6.33;;;;;;;6.87;100.00;98891.59;4990372;28;20206;-68
2022/01/11 01:18:37;;;;;;;7.57;6.87;;;;;;;6.83;100.00;98901.13;4990509;28;20681;-70
2022/01/11 01:21:04;;;;;;;10.23;6.30;;;;;;;6.75;100.00;98907.34;4991044;28;20621;-69
2022/01/11 01:23:32;;;;;;;7.03;5.70;;;;;;;6.76;100.00;98902.16;4990345;28;20225;-69
2022/01/11 01:26:01;;;;;;;6.73;5.77;;;;;;;6.50;100.00;98871.81;4990522;28;20746;-64
2022/01/11 01:28:28;;;;;;;9.77;6.80;;;;;;;6.58;100.00;98894.81;4990252;28;20199;-64
2022/01/11 01:31:00;;;;;;;10.27;6.83;;;;;;;6.74;100.00;98910.81;4990233;28;20205;-65
2022/01/11 01:33:27;;;;;;;10.17;7.10;;;;;;;6.69;100.00;98910.91;4990535;28;20278;-69
2022/01/11 01:36:00;;;;;;;9.47;6.67;;;;;;;6.68;100.00;98924.66;4990154;28;20233;-69
2022/01/11 01:38:26;;;;;;;7.13;6.43;;;;;;;6.61;100.00;98915.38;4993333;28;20203;-69
2022/01/11 01:40:58;;;;;;;7.07;5.77;;;;;;;6.68;100.00;98918.66;4993815;28;20198;-63
2022/01/11 01:43:27;;;;;;;6.40;5.27;;;;;;;6.38;100.00;98871.22;4993579;28;20231;-64
2022/01/11 01:45:58;;;;;;;11.10;6.37;;;;;;;6.64;100.00;98927.38;4993728;28;20234;-69
2022/01/11 01:48:25;;;;;;;6.33;5.47;;;;;;;6.67;100.00;98924.69;4994379;28;20260;-64
2022/01/11 01:50:52;;;;;;;7.50;6.73;;;;;;;6.63;100.00;98929.09;4994273;28;20677;-64
2022/01/11 01:53:19;;;;;;;6.83;5.33;;;;;;;6.60;100.00;98939.47;5008964;28;20292;-69
2022/01/11 01:55:47;;;;;;;6.10;5.50;;;;;;;6.51;100.00;98925.06;5023223;28;20205;-64
2022/01/11 01:58:15;;;;;;;9.07;6.70;;;;;;;6.47;100.00;98923.41;5013263;28;20210;-63
2022/01/11 02:00:51;;;;;;;7.00;6.30;;;;;;;6.42;100.00;98933.00;5018029;28;20232;-69
2022/01/11 02:03:25;;;;;;;6.43;5.83;;;;;;;6.39;100.00;98937.38;5032806;28;20225;-69
2022/01/11 02:05:55;;;;;;;7.17;6.57;;;;;;;6.37;100.00;98928.81;5032846;28;20624;-59
2022/01/11 02:08:22;;;;;;;7.53;5.80;;;;;;;6.33;100.00;98930.59;5032684;28;20204;-59
2022/01/11 02:10:49;;;;;;;7.37;6.67;;;;;;;6.30;100.00;98933.25;5032702;28;20196;-64
2022/01/11 02:13:17;;;;;;;6.83;6.13;;;;;;;6.24;100.00;98938.53;5025819;28;20213;-64
2022/01/11 02:15:46;;;;;;;7.63;6.90;;;;;;;6.15;100.00;98928.41;5013074;28;20197;-64
2022/01/11 02:18:15;;;;;;;9.67;7.87;;;;;;;6.18;100.00;98928.34;5012712;28;20198;-65
2022/01/11 02:20:45;;;;;;;9.20;7.40;;;;;;;6.20;100.00;98939.47;5012836;28;20198;-64
2022/01/11 02:23:12;;;;;;;8.67;7.50;;;;;;;6.08;100.00;98932.00;5012612;28;20660;-65
2022/01/11 02:25:40;;;;;;;7.43;6.00;;;;;;;6.11;100.00;98947.38;5012518;28;20196;-65
2022/01/11 02:28:09;;;;;;;10.60;6.50;;;;;;;5.85;100.00;98924.69;5017325;28;20703;-65
2022/01/11 02:30:36;;;;;;;10.90;6.87;;;;;;;5.96;100.00;98960.56;5032433;28;20199;-60
2022/01/11 02:33:09;;;;;;;8.63;6.80;;;;;;;5.88;100.00;98952.97;5032055;28;20236;-65
2022/01/11 02:35:36;;;;;;;8.40;6.87;;;;;;;5.80;100.00;98958.25;5032160;28;20197;-65
2022/01/11 02:38:04;;;;;;;9.27;7.00;;;;;;;5.86;100.00;98957.28;5032044;28;20292;-65
2022/01/11 02:40:31;;;;;;;11.27;6.53;;;;;;;5.75;100.00;98956.66;5032097;28;20203;-65
2022/01/11 02:42:58;;;;;;;8.97;6.90;;;;;;;5.73;100.00;98960.97;5032319;28;20427;-65
2022/01/11 02:45:25;;;;;;;8.43;7.13;;;;;;;5.62;100.00;98953.44;5032052;28;20203;-66
2022/01/11 02:47:52;;;;;;;9.80;7.27;;;;;;;5.72;100.00;98965.28;5032086;28;20200;-66
2022/01/11 02:50:20;;;;;;;8.50;6.30;;;;;;;5.70;100.00;98961.88;5031857;28;20206;-65
2022/01/11 02:52:47;;;;;;;6.20;5.60;;;;;;;5.68;100.00;98958.47;5031853;28;20194;-59
2022/01/11 02:55:16;;;;;;;8.27;6.53;;;;;;;5.67;100.00;98963.63;5031696;28;20208;-64
2022/01/11 02:57:44;;;;;;;8.90;7.27;;;;;;;5.68;100.00;98968.75;5031815;28;20677;-68
2022/01/11 03:00:13;;;;;;;9.07;6.60;;;;;;;5.73;100.00;98966.13;5032045;28;20711;-68
2022/01/11 03:02:40;;;;;;;8.07;6.90;;;;;;;5.47;100.00;98933.09;5031803;28;20222;-68
2022/01/11 03:05:10;;;;;;;7.97;6.77;;;;;;;5.50;100.00;98932.22;5032109;28;20280;-69
2022/01/11 03:07:38;;;;;;;6.57;5.40;;;;;;;5.68;100.00;98976.47;5031687;28;20270;-68
2022/01/11 03:10:15;;;;;;;7.33;6.57;;;;;;;5.66;100.00;98955.06;5019781;28;20221;-64
2022/01/11 03:12:44;;;;;;;8.07;7.10;;;;;;;5.53;100.00;98940.69;5011953;28;20293;-68
2022/01/11 03:15:11;;;;;;;6.67;5.80;;;;;;;5.70;100.00;98972.16;5011696;28;20195;-69
2022/01/11 03:17:38;;;;;;;6.33;5.33;;;;;;;5.49;100.00;98957.09;5014868;28;20300;-65
2022/01/11 03:20:07;;;;;;;8.07;6.07;;;;;;;5.60;100.00;98975.78;5031863;28;20216;-69
2022/01/11 03:22:34;;;;;;;5.37;4.90;;;;;;;5.61;100.00;98981.78;5031957;28;20655;-65
2022/01/11 03:25:02;;;;;;;4.53;4.13;;;;;;;5.54;100.00;98986.16;5031916;28;20284;-65
2022/01/11 03:27:28;;;;;;;5.43;4.77;;;;;;;5.55;100.00;98987.88;5031522;28;20587;-65
2022/01/11 03:29:57;;;;;;;7.27;5.77;;;;;;;5.52;100.00;98987.09;5031035;28;20197;-64
2022/01/11 03:32:24;;;;;;;6.70;4.73;;;;;;;5.48;100.00;98984.56;5031444;28;20202;-65
2022/01/11 03:34:51;;;;;;;5.10;4.60;;;;;;;5.51;100.00;98999.09;5031268;28;20197;-69
2022/01/11 03:37:20;;;;;;;5.73;5.13;;;;;;;5.49;100.00;98998.28;5031349;28;20291;-66
2022/01/11 03:39:47;;;;;;;4.87;4.40;;;;;;;5.49;100.00;98995.72;5030949;28;20288;-64
2022/01/11 03:42:14;;;;;;;5.50;4.73;;;;;;;5.53;100.00;99004.25;5030968;28;20197;-69
2022/01/11 03:44:41;;;;;;;4.50;4.10;;;;;;;5.47;100.00;99000.03;5030817;28;20713;-69
2022/01/11 03:47:09;;;;;;;5.30;4.80;;;;;;;5.49;100.00;99003.44;5030888;28;20707;-60
2022/01/11 03:49:36;;;;;;;3.43;3.13;;;;;;;5.36;100.00;99000.19;5030744;28;20208;-65
2022/01/11 03:52:04;;;;;;;8.17;5.90;;;;;;;5.48;100.00;99004.28;5030639;28;20197;-65
2022/01/11 03:54:44;;;;;;;7.13;5.63;;;;;;;5.51;100.00;99005.97;5030828;28;20197;-65
2022/01/11 03:57:11;;;;;;;5.70;5.10;;;;;;;5.51;100.00;99011.97;5030875;28;20233;-62
2022/01/11 03:59:38;;;;;;;5.70;5.20;;;;;;;5.56;100.00;99010.16;5030347;28;20283;-63
2022/01/11 04:02:05;;;;;;;6.13;5.63;;;;;;;5.50;100.00;99012.00;4998142;28;20198;-64
2022/01/11 04:04:34;;;;;;;5.90;5.30;;;;;;;5.50;100.00;99019.72;4991514;28;20219;-64
2022/01/11 04:07:01;;;;;;;5.83;5.17;;;;;;;5.40;100.00;98990.72;5004347;28;20273;-66
2022/01/11 04:09:28;;;;;;;5.47;4.50;;;;;;;5.57;100.00;99019.59;5008835;28;20217;-67
2022/01/11 04:11:55;;;;;;;5.87;5.37;;;;;;;5.58;100.00;99031.59;5007781;28;20190;-60
2022/01/11 04:14:25;;;;;;;6.27;5.37;;;;;;;5.42;100.00;99012.09;5009381;28;20194;-66
2022/01/11 04:16:52;;;;;;;6.30;5.13;;;;;;;5.48;100.00;99037.75;5006796;28;20217;-64
2022/01/11 04:19:19;;;;;;;5.07;4.63;;;;;;;5.48;100.00;99035.19;5009111;28;20206;-64
2022/01/11 04:21:48;;;;;;;4.77;4.37;;;;;;;5.47;100.00;99033.47;5009259;28;20202;-65
2022/01/11 04:24:15;;;;;;;5.50;4.97;;;;;;;5.41;100.00;99036.16;5009381;28;20214;-64
2022/01/11 04:26:42;;;;;;;5.93;5.33;;;;;;;5.45;100.00;99045.53;5009490;28;20216;-67
2022/01/11 04:29:09;;;;;;;6.00;5.40;;;;;;;5.43;100.00;99036.97;5009318;28;20289;-67
2022/01/11 04:31:36;;;;;;;7.07;6.37;;;;;;;5.41;100.00;99038.75;5009199;28;20198;-64
2022/01/11 04:34:03;;;;;;;7.73;6.43;;;;;;;5.39;100.00;99043.91;5009443;28;20680;-64
2022/01/11 04:36:30;;;;;;;6.80;6.20;;;;;;;5.42;100.00;99053.28;5009002;28;20226;-64
2022/01/11 04:38:59;;;;;;;7.57;6.70;;;;;;;5.51;100.00;99055.72;5009000;28;20206;-59
2022/01/11 04:41:26;;;;;;;8.47;6.77;;;;;;;5.50;100.00;99053.19;5009086;28;20311;-57
2022/01/11 04:43:53;;;;;;;6.60;5.93;;;;;;;5.55;100.00;99052.22;5008941;28;20605;-58
2022/01/11 04:46:20;;;;;;;8.57;7.03;;;;;;;5.61;100.00;99059.84;5009134;28;20212;-59
2022/01/11 04:48:47;;;;;;;29.60;10.23;;;;;;;5.59;100.00;99055.59;5008628;28;20667;-58
2022/01/11 04:51:14;;;;;;;24.07;9.50;;;;;;;5.66;100.00;99047.75;5008580;28;20204;-57
2022/01/11 04:53:41;;;;;;;7.23;6.53;;;;;;;5.53;100.00;99032.56;5008853;28;20198;-57
2022/01/11 04:56:12;;;;;;;12.90;8.90;;;;;;;5.54;100.00;99062.53;5008659;28;20197;-56
2022/01/11 04:58:39;;;;;;;8.40;7.47;;;;;;;5.46;100.00;99068.66;5009330;28;20654;-59
2022/01/11 05:01:06;;;;;;;11.90;8.00;;;;;;;5.45;100.00;99073.81;5009322;28;20288;-64
2022/01/11 05:03:33;;;;;;;3.87;3.53;;;;;;;5.35;100.00;99082.56;5009526;28;20611;-66
2022/01/11 05:06:01;;;;;;;5.30;4.80;;;;;;;5.10;100.00;99049.47;5010029;28;20325;-65
2022/01/11 05:08:28;;;;;;;5.20;4.70;;;;;;;5.22;100.00;99081.03;5009926;28;20194;-60
2022/01/11 05:10:55;;;;;;;4.43;3.07;;;;;;;5.18;100.00;99080.25;5010062;28;20596;-65
2022/01/11 05:13:23;;;;;;;5.40;4.20;;;;;;;4.99;100.00;99051.34;5013275;28;20281;-65
2022/01/11 05:15:50;;;;;;;5.20;4.70;;;;;;;5.18;100.00;99093.13;5013811;28;20564;-69
2022/01/11 05:18:18;;;;;;;3.77;3.43;;;;;;;5.17;100.00;99103.41;5014149;28;20234;-68
2022/01/11 05:20:46;;;;;;;4.07;3.77;;;;;;;4.94;100.00;99081.44;5013854;28;20583;-69
2022/01/11 05:23:14;;;;;;;5.00;3.63;;;;;;;5.04;100.00;99110.44;5013512;28;20229;-68
2022/01/11 05:25:42;;;;;;;4.40;4.10;;;;;;;5.03;100.00;99112.16;5013584;28;20201;-68
2022/01/11 05:28:09;;;;;;;6.43;4.83;;;;;;;5.06;100.00;99109.56;5013507;28;20674;-70
2022/01/11 05:30:38;;;;;;;5.53;4.67;;;;;;;4.96;100.00;99109.69;5013631;28;20205;-70
2022/01/11 05:33:05;;;;;;;8.50;5.37;;;;;;;5.00;100.00;99111.34;5013590;28;20210;-69
2022/01/11 05:35:32;;;;;;;6.60;5.20;;;;;;;4.97;100.00;99117.38;5013449;28;20285;-69
2022/01/11 05:37:59;;;;;;;5.23;4.73;;;;;;;4.85;100.00;99096.13;5013380;28;20205;-69
2022/01/11 05:40:26;;;;;;;5.03;4.53;;;;;;;4.97;100.00;99135.38;5013530;28;20661;-65
2022/01/11 05:42:53;;;;;;;4.70;4.00;;;;;;;5.01;100.00;99131.91;5013446;28;20198;-70
2022/01/11 05:45:20;;;;;;;5.70;4.97;;;;;;;5.02;100.00;99140.47;5013260;28;20313;-70
2022/01/11 05:47:52;;;;;;;5.97;4.90;;;;;;;5.08;100.00;99143.81;5013465;28;20198;-70
2022/01/11 05:50:21;;;;;;;7.03;5.53;;;;;;;5.04;100.00;99149.88;5013486;28;20575;-69
2022/01/11 05:52:49;;;;;;;7.93;6.03;;;;;;;4.98;100.00;99156.81;5013332;28;20284;-69
2022/01/11 05:55:16;;;;;;;5.20;4.43;;;;;;;4.96;100.00;99164.56;5013252;28;20738;-69
2022/01/11 05:57:43;;;;;;;7.60;5.47;;;;;;;4.92;100.00;99168.03;5013121;28;20578;-69
2022/01/11 06:00:14;;;;;;;7.53;5.57;;;;;;;4.76;100.00;99145.91;5013035;28;20198;-69
2022/01/11 06:02:43;;;;;;;6.47;5.73;;;;;;;4.93;100.00;99168.88;5013100;28;20256;-69
2022/01/11 06:05:12;;;;;;;7.77;6.17;;;;;;;4.93;100.00;99186.88;5012821;28;20320;-69
2022/01/11 06:07:39;;;;;;;7.83;6.13;;;;;;;4.96;100.00;99182.56;5013122;28;20198;-68
2022/01/11 06:10:08;;;;;;;10.73;7.23;;;;;;;4.98;100.00;99185.94;5013038;28;20202;-68
2022/01/11 06:12:35;;;;;;;9.27;7.17;;;;;;;4.96;100.00;99190.28;5012965;28;20657;-69
2022/01/11 06:15:02;;;;;;;12.17;8.77;;;;;;;4.95;100.00;99193.72;5012610;28;20198;-69
2022/01/11 06:17:29;;;;;;;10.33;7.13;;;;;;;4.96;100.00;99199.72;5012849;28;20206;-69
2022/01/11 06:19:55;;;;;;;8.47;7.30;;;;;;;4.98;100.00;99195.38;5012654;28;20229;-67
2022/01/11 06:22:25;;;;;;;9.60;7.83;;;;;;;5.02;100.00;99204.78;5012676;28;20198;-68
2022/01/11 06:24:52;;;;;;;12.97;9.20;;;;;;;5.05;100.00;99203.03;5012606;28;20260;-68
2022/01/11 06:27:19;;;;;;;11.30;7.70;;;;;;;5.07;100.00;99211.59;5012897;28;20190;-69
2022/01/11 06:29:46;;;;;;;12.90;8.77;;;;;;;5.04;100.00;99216.75;5012386;28;20202;-63
2022/01/11 06:32:13;;;;;;;8.53;7.13;;;;;;;5.00;100.00;99221.94;5012390;28;20209;-69
2022/01/11 06:34:40;;;;;;;8.07;7.00;;;;;;;5.00;100.00;99225.34;5012525;28;20198;-68
2022/01/11 06:37:07;;;;;;;9.47;8.00;;;;;;;4.97;100.00;99224.53;5012405;28;20637;-68
2022/01/11 06:39:36;;;;;;;13.40;9.30;;;;;;;4.89;100.00;99206.63;5012173;28;20206;-68
2022/01/11 06:42:04;;;;;;;14.17;9.57;;;;;;;5.00;100.00;99242.50;5012177;28;20195;-69
2022/01/11 06:44:32;;;;;;;12.67;9.20;;;;;;;4.86;100.00;99221.22;5012305;28;20706;-64
2022/01/11 06:46:59;;;;;;;12.40;9.73;;;;;;;4.98;100.00;99249.38;5012110;28;20200;-64
2022/01/11 06:49:26;;;;;;;12.77;9.97;;;;;;;4.96;100.00;99254.56;5012186;28;20202;-64
2022/01/11 06:51:53;;;;;;;18.60;12.93;;;;;;;4.97;100.00;99255.41;5023712;28;20202;-63
2022/01/11 06:54:20;;;;;;;21.63;11.43;;;;;;;4.91;100.00;99252.91;5014318;28;20205;-65
2022/01/11 06:56:48;;;;;;;17.77;11.23;;;;;;;4.95;100.00;99265.72;5012084;28;20221;-64
2022/01/11 06:59:15;;;;;;;13.87;10.70;;;;;;;4.89;100.00;99262.34;5011971;28;20194;-63
2022/01/11 07:01:42;;;;;;;17.57;11.77;;;;;;;4.88;100.00;99264.06;5012116;28;20597;-64
2022/01/11 07:04:09;;;;;;;19.07;11.40;;;;;;;4.87;100.00;99259.78;5011770;28;20316;-64
2022/01/11 07:06:36;;;;;;;22.83;12.00;;;;;;;4.97;100.00;99263.97;5011737;28;20701;-64
2022/01/11 07:09:03;;;;;;;18.60;10.23;;;;;;;4.95;100.00;99272.59;5012016;28;20205;-62
2022/01/11 07:11:30;;;;;;;18.17;10.87;;;;;;;4.91;100.00;99276.91;5011852;28;20285;-63
2022/01/11 07:14:01;;;;;;;11.47;8.17;;;;;;;4.68;100.00;99255.69;5011723;28;20202;-62
2022/01/11 07:16:28;;;;;;;15.50;10.30;;;;;;;4.75;100.00;99281.31;5011787;28;20569;-62
2022/01/11 07:18:55;;;;;;;22.53;12.13;;;;;;;4.72;100.00;99272.81;5011488;28;20198;-67
2022/01/11 07:21:22;;;;;;;18.73;10.13;;;;;;;4.49;100.00;99254.16;5011401;28;20209;-67
2022/01/11 07:23:49;;;;;;;20.13;12.07;;;;;;;4.68;100.00;99278.81;5011632;28;20588;-68
2022/01/11 07:26:16;;;;;;;11.97;9.03;;;;;;;4.75;100.00;99285.59;5011498;28;20204;-69
2022/01/11 07:28:43;;;;;;;17.33;10.83;;;;;;;4.75;100.00;99290.75;5011819;28;20604;-63
2022/01/11 07:31:11;;;;;;;13.33;10.47;;;;;;;4.81;100.00;99303.56;5011736;28;20202;-62
2022/01/11 07:33:38;;;;;;;14.60;10.43;;;;;;;4.81;100.00;99308.72;5002776;28;20218;-62
2022/01/11 07:36:05;;;;;;;16.73;10.97;;;;;;;4.77;100.00;99308.75;5018157;28;20628;-63
2022/01/11 07:38:32;;;;;;;20.23;12.50;;;;;;;4.84;100.00;99315.56;5030587;28;20220;-63
2022/01/11 07:40:59;;;;;;;18.80;13.07;;;;;;;4.90;100.00;99324.06;5030739;28;20225;-63
2022/01/11 07:43:26;;;;;;;18.13;12.53;;;;;;;4.80;100.00;99317.28;5030766;28;20229;-62
2022/01/11 07:45:53;;;;;;;18.43;11.07;;;;;;;4.89;100.00;99319.78;5030401;28;20236;-62
2022/01/11 07:48:21;;;;;;;21.33;13.63;;;;;;;4.80;100.00;99317.28;5029944;28;20225;-68
2022/01/11 07:50:48;;;;;;;16.20;12.90;;;;;;;4.85;100.00;99328.41;5030304;28;20225;-67
2022/01/11 07:53:15;;;;;;;18.30;12.90;;;;;;;4.83;100.00;99327.56;5019869;28;20226;-67
2022/01/11 07:55:42;;;;;;;23.63;14.33;;;;;;;4.94;100.00;99327.47;5011648;28;20208;-69
2022/01/11 07:58:09;;;;;;;26.03;15.77;;;;;;;4.91;100.00;99333.47;5010902;28;20208;-67
2022/01/11 08:00:36;;;;;;;20.03;13.83;;;;;;;4.99;100.00;99346.25;5010994;28;20289;-68
2022/01/11 08:03:03;;;;;;;19.17;11.87;;;;;;;4.94;100.00;99338.59;5011247;28;20193;-61
2022/01/11 08:05:32;;;;;;;18.73;12.77;;;;;;;5.06;100.00;99353.06;5010988;28;20221;-62
2022/01/11 08:07:59;;;;;;;17.27;11.07;;;;;;;5.04;100.00;99360.78;5010774;28;20212;-64
2022/01/11 08:10:26;;;;;;;10.17;8.47;;;;;;;5.01;100.00;99360.81;5010777;28;20589;-67
2022/01/11 08:12:53;;;;;;;10.13;8.27;;;;;;;5.02;100.00;99359.94;4992367;28;20325;-66
2022/01/11 08:15:20;;;;;;;15.80;10.27;;;;;;;5.04;100.00;99365.94;4990923;28;20199;-67
2022/01/11 08:17:47;;;;;;;12.97;9.00;;;;;;;5.06;100.00;99369.34;4991116;28;20201;-61
2022/01/11 08:20:15;;;;;;;28.10;14.50;;;;;;;5.06;100.00;99371.94;4991160;28;20195;-61
2022/01/11 08:22:43;;;;;;;21.53;11.80;;;;;;;5.06;100.00;99374.50;4991153;28;20202;-67
2022/01/11 08:25:11;;;;;;;16.43;10.40;;;;;;;5.05;100.00;99371.94;4990744;28;20222;-67
2022/01/11 08:27:38;;;;;;;10.33;8.07;;;;;;;5.04;100.00;99386.50;4990881;28;20257;-68
2022/01/11 08:30:07;;;;;;;11.93;8.60;;;;;;;4.96;100.00;99385.72;4990680;28;20202;-69
2022/01/11 08:32:34;;;;;;;11.57;9.40;;;;;;;4.98;100.00;99380.56;4990816;28;20199;-58
2022/01/11 08:35:01;;;;;;;10.47;8.10;;;;;;;4.96;100.00;99383.16;5002485;28;20198;-71
2022/01/11 08:37:28;;;;;;;15.73;10.37;;;;;;;4.95;100.00;99386.59;5010268;28;20316;-69
2022/01/11 08:39:57;;;;;;;16.77;11.90;;;;;;;4.95;100.00;99384.03;5010432;28;20208;-67
2022/01/11 08:42:27;;;;;;;20.00;11.93;;;;;;;4.98;100.00;99388.25;5010307;28;20224;-66
2022/01/11 08:44:54;;;;;;;9.20;7.77;;;;;;;4.83;100.00;99376.41;5010286;28;20283;-67
2022/01/11 08:47:22;;;;;;;10.90;8.30;;;;;;;4.86;100.00;99386.66;5013612;28;20198;-67
2022/01/11 08:49:49;;;;;;;12.97;9.00;;;;;;;4.93;100.00;99387.47;5014679;28;20204;-67
2022/01/11 08:52:16;;;;;;;12.27;8.10;;;;;;;4.96;100.00;99377.16;5014366;28;20204;-68
2022/01/11 08:54:43;;;;;;;14.97;10.17;;;;;;;4.88;100.00;99351.50;5014409;28;20277;-68
2022/01/11 08:57:11;;;;;;;10.03;8.77;;;;;;;5.01;100.00;99381.38;5014102;28;20204;-68
2022/01/11 08:59:38;;;;;;;12.30;9.47;;;;;;;5.06;100.00;99383.94;5014648;28;20194;-68
2022/01/11 09:02:06;;;;;;;11.97;9.43;;;;;;;5.08;100.00;99385.59;5014223;28;20285;-62
2022/01/11 09:04:33;;;;;;;24.20;15.83;;;;;;;5.15;100.00;99388.13;5004276;28;20251;-63
2022/01/11 09:07:00;;;;;;;27.93;17.20;;;;;;;5.18;100.00;99386.41;4994296;28;20780;-59
2022/01/11 09:09:28;;;;;;;16.50;12.83;;;;;;;5.19;100.00;99387.25;4994204;28;20313;-62
2022/01/11 09:11:55;;;;;;;10.97;8.77;;;;;;;5.23;100.00;99386.34;4993816;28;20257;-62
2022/01/11 09:14:24;;;;;;;9.03;8.10;;;;;;;5.15;100.00;99388.13;4993753;28;20736;-62
2022/01/11 09:16:51;;;;;;;9.47;8.40;;;;;;;5.13;100.00;99380.44;5002780;28;20253;-62
2022/01/11 09:19:19;;;;;;;10.63;8.83;;;;;;;5.17;100.00;99386.41;5033333;28;20235;-67
2022/01/11 09:21:47;;;;;;;9.47;8.47;;;;;;;5.08;100.00;99382.19;5021249;28;20233;-60
2022/01/11 09:24:19;;;;;;;10.40;8.60;;;;;;;5.09;100.00;99387.31;5020224;28;20309;-62
2022/01/11 09:26:46;;;;;;;10.70;8.80;;;;;;;5.09;100.00;99383.88;5033068;28;20221;-62
2022/01/11 09:29:13;;;;;;;9.67;8.03;;;;;;;5.05;100.00;99382.22;5032876;28;20245;-61
2022/01/11 09:31:42;;;;;;;10.57;8.43;;;;;;;5.08;100.00;99385.59;5032837;28;20229;-62
2022/01/11 09:34:09;;;;;;;9.40;8.40;;;;;;;5.11;100.00;99384.72;5033063;28;20218;-68
2022/01/11 09:36:35;;;;;;;11.87;9.57;;;;;;;5.07;100.00;99396.78;5032316;28;20320;-66
2022/01/11 09:39:03;;;;;;;8.87;7.50;;;;;;;5.05;100.00;99393.38;5032093;28;20261;-67
2022/01/11 09:41:30;;;;;;;10.53;8.60;;;;;;;5.01;100.00;99401.97;5019427;28;20230;-67
2022/01/11 09:43:59;;;;;;;10.73;7.83;;;;;;;5.09;100.00;99400.16;5023517;28;20225;-67
2022/01/11 09:46:26;;;;;;;10.90;9.10;;;;;;;5.01;100.00;99411.41;5018830;28;20591;-59
2022/01/11 09:48:55;;;;;;;11.90;9.23;;;;;;;5.10;100.00;99411.31;5021046;28;20225;-63
2022/01/11 09:51:22;;;;;;;9.80;8.70;;;;;;;5.14;100.00;99417.28;5023556;28;20636;-62
2022/01/11 09:53:49;;;;;;;11.10;9.13;;;;;;;5.11;100.00;99403.59;5032362;28;20315;-62
2022/01/11 09:56:17;;;;;;;12.13;9.67;;;;;;;5.14;100.00;99420.72;5032372;28;20224;-62
2022/01/11 09:58:45;;;;;;;13.07;9.60;;;;;;;4.98;100.00;99391.69;5030834;28;20225;-61
2022/01/11 10:01:12;;;;;;;12.50;9.57;;;;;;;5.06;100.00;99382.22;5032506;28;20223;-58
2022/01/11 10:03:57;;;;;;;13.10;9.30;;;;;;;5.15;100.00;99398.44;5032036;28;20221;-63
2022/01/11 10:06:25;;;;;;;13.53;8.30;;;;;;;5.26;100.00;99410.34;5032472;28;20243;-68
2022/01/11 10:08:52;;;;;;;11.63;9.47;;;;;;;5.28;100.00;99410.31;5032274;28;20233;-68
2022/01/11 10:11:34;;;;;;;13.67;9.67;;;;;;;5.27;100.00;99406.91;5032352;28;20749;-67
2022/01/11 10:14:17;;;;;;;14.03;9.43;;;;;;;5.16;100.00;99410.44;5031463;28;20240;-63
2022/01/11 10:16:44;;;;;;;13.40;9.83;;;;;;;5.16;100.00;99406.13;5032052;28;20221;-64
2022/01/11 10:19:22;;;;;;;15.60;10.97;;;;;;;5.23;100.00;99417.22;5032034;28;20227;-63
2022/01/11 10:21:50;;;;;;;16.33;11.13;;;;;;;5.26;100.00;99417.19;5032424;28;20224;-67
2022/01/11 10:24:26;;;;;;;12.00;10.13;;;;;;;5.33;100.00;99421.41;5032172;28;20268;-68
2022/01/11 10:26:54;;;;;;;17.90;11.20;;;;;;;5.27;100.00;99416.34;5032428;28;20579;-64
2022/01/11 10:29:27;;;;;;;15.70;10.33;;;;;;;5.31;100.00;99416.28;5031522;28;20226;-63
2022/01/11 10:31:55;;;;;;;16.97;11.60;;;;;;;5.34;100.00;99416.25;5031953;28;20217;-61
2022/01/11 10:34:32;;;;;;;16.10;11.70;;;;;;;5.29;100.00;99418.03;5031910;28;20257;-63
2022/01/11 10:37:01;;;;;;;18.27;11.60;;;;;;;5.25;100.00;99423.19;5031585;28;20324;-67
2022/01/11 10:39:32;;;;;;;9.57;7.63;;;;;;;5.07;100.00;99432.81;5031947;28;20705;-68
2022/01/11 10:42:00;;;;;;;7.70;6.73;;;;;;;5.01;100.00;99435.41;5031917;28;20221;-64
2022/01/11 10:44:52;;;;;;;10.87;8.00;;;;;;;4.98;100.00;99432.84;5031535;28;20221;-63
2022/01/11 10:47:28;;;;;;;10.20;7.87;;;;;;;4.84;100.00;99426.97;5023339;28;20237;-61
2022/01/11 10:50:00;;;;;;;14.20;9.20;;;;;;;4.80;100.00;99433.00;5011873;28;20256;-59
2022/01/11 10:52:31;;;;;;;11.20;7.13;;;;;;;4.68;100.00;99418.50;5012143;28;20228;-63
2022/01/11 10:54:58;;;;;;;10.03;7.30;;;;;;;4.73;100.00;99432.19;5011987;28;20256;-68
2022/01/11 10:57:28;;;;;;;7.80;6.80;;;;;;;4.58;100.00;99428.84;5018243;28;20224;-69
2022/01/11 11:00:15;;;;;;;10.30;7.23;;;;;;;4.55;100.00;99437.44;5029592;28;20229;-68
2022/01/11 11:02:46;;;;;;;10.27;8.07;;;;;;;4.56;100.00;99425.44;5031542;28;20615;-68
2022/01/11 11:05:17;;;;;;;10.60;8.30;;;;;;;4.58;100.00;99436.56;5031308;28;20320;-63
2022/01/11 11:07:54;;;;;;;17.37;10.83;;;;;;;4.61;100.00;99437.41;5031140;28;20220;-69
2022/01/11 11:10:30;;;;;;;10.03;7.83;;;;;;;4.58;100.00;99428.84;5030948;28;20221;-63
2022/01/11 11:12:58;;;;;;;16.40;9.00;;;;;;;4.56;100.00;99433.16;5030431;28;20228;-64
2022/01/11 11:15:29;;;;;;;14.03;9.87;;;;;;;4.60;100.00;99434.84;5031155;28;20331;-60
2022/01/11 11:17:56;;;;;;;16.17;9.97;;;;;;;4.58;100.00;99434.00;5031159;28;20711;-63
2022/01/11 11:20:25;;;;;;;22.20;12.77;;;;;;;4.61;100.00;99427.13;5031088;28;20221;-69
2022/01/11 11:22:55;;;;;;;25.90;13.47;;;;;;;4.43;100.00;99401.53;5030888;28;20231;-68
2022/01/11 11:25:22;;;;;;;13.30;9.17;;;;;;;4.64;100.00;99431.38;5030709;28;20264;-67
2022/01/11 11:27:49;;;;;;;9.37;7.47;;;;;;;4.64;100.00;99436.50;5030230;28;20235;-68
2022/01/11 11:30:17;;;;;;;9.27;7.87;;;;;;;4.59;100.00;99433.13;5030550;28;20308;-67
2022/01/11 11:32:46;;;;;;;12.93;10.13;;;;;;;4.62;100.00;99436.56;5030533;28;20231;-69
2022/01/11 11:35:14;;;;;;;13.77;10.13;;;;;;;4.69;100.00;99432.22;5030642;28;20213;-68